sensor_id;sensor_type;location;lat;lon;timestamp;P1;durP1;ratioP1;P2;durP2;ratioP2
72785;SDS011;60902;53.876;10.674;2023-04-05T00:00:04;8.93;;;5.03;;
72785;SDS011;60902;53.876;10.674;2023-04-05T00:00:18;9.15;;;5.25;;
72785;SDS011;60902;53.876;10.674;2023-04-05T00:00:29;9.40;;;5.28;;
72785;SDS011;60902;53.876;10.674;2023-04-05T00:00:41;10.18;;;5.45;;
72785;SDS011;60902;53.876;10.674;2023-04-05T00:00:52;10.57;;;5.70;;
72785;SDS011;60902;53.876;10.674;2023-04-05T00:01:04;12.00;;;5.97;;
72785;SDS011;60902;53.876;10.674;2023-04-05T00:01:16;11.27;;;6.07;;
72785;SDS011;60902;53.876;10.674;2023-04-05T00:01:29;10.07;;;5.88;;
72785;SDS011;60902;53.876;10.674;2023-04-05T00:01:41;9.02;;;5.60;;
72785;SDS011;60902;53.876;10.674;2023-04-05T00:01:59;9.85;;;5.90;;
72785;SDS011;60902;53.876;10.674;2023-04-05T00:02:10;10.75;;;6.05;;
72785;SDS011;60902;53.876;10.674;2023-04-05T00:02:23;9.90;;;5.88;;
72785;SDS011;60902;53.876;10.674;2023-04-05T00:02:38;9.25;;;6.03;;
72785;SDS011;60902;53.876;10.674;2023-04-05T00:02:50;9.35;;;5.97;;
72785;SDS011;60902;53.876;10.674;2023-04-05T00:03:03;9.32;;;6.10;;
72785;SDS011;60902;53.876;10.674;2023-04-05T00:03:14;9.18;;;5.95;;
72785;SDS011;60902;53.876;10.674;2023-04-05T00:03:26;9.80;;;5.95;;
72785;SDS011;60902;53.876;10.674;2023-04-05T00:03:39;9.55;;;5.70;;
72785;SDS011;60902;53.876;10.674;2023-04-05T00:03:51;9.35;;;5.60;;
72785;SDS011;60902;53.876;10.674;2023-04-05T00:04:03;9.48;;;5.40;;
72785;SDS011;60902;53.876;10.674;2023-04-05T00:04:16;9.98;;;5.50;;
72785;SDS011;60902;53.876;10.674;2023-04-05T00:04:30;9.48;;;5.28;;
72785;SDS011;60902;53.876;10.674;2023-04-05T00:04:44;8.90;;;5.35;;
72785;SDS011;60902;53.876;10.674;2023-04-05T00:05:01;9.02;;;5.78;;
72785;SDS011;60902;53.876;10.674;2023-04-05T00:05:13;9.30;;;5.90;;
72785;SDS011;60902;53.876;10.674;2023-04-05T00:05:25;9.30;;;5.78;;
72785;SDS011;60902;53.876;10.674;2023-04-05T00:05:38;9.07;;;5.65;;
72785;SDS011;60902;53.876;10.674;2023-04-05T00:05:49;9.63;;;5.75;;
72785;SDS011;60902;53.876;10.674;2023-04-05T00:06:03;9.88;;;5.90;;
72785;SDS011;60902;53.876;10.674;2023-04-05T00:06:15;9.25;;;5.65;;
72785;SDS011;60902;53.876;10.674;2023-04-05T00:06:26;9.73;;;5.65;;
72785;SDS011;60902;53.876;10.674;2023-04-05T00:06:38;9.70;;;5.50;;
72785;SDS011;60902;53.876;10.674;2023-04-05T00:06:52;9.18;;;5.45;;
72785;SDS011;60902;53.876;10.674;2023-04-05T00:07:04;9.32;;;5.72;;
72785;SDS011;60902;53.876;10.674;2023-04-05T00:07:17;9.70;;;5.75;;
72785;SDS011;60902;53.876;10.674;2023-04-05T00:07:30;9.68;;;5.72;;
72785;SDS011;60902;53.876;10.674;2023-04-05T00:07:44;9.68;;;5.70;;
72785;SDS011;60902;53.876;10.674;2023-04-05T00:07:57;10.00;;;5.60;;
72785;SDS011;60902;53.876;10.674;2023-04-05T00:08:09;10.25;;;5.70;;
72785;SDS011;60902;53.876;10.674;2023-04-05T00:08:27;9.35;;;5.15;;
72785;SDS011;60902;53.876;10.674;2023-04-05T00:08:38;9.23;;;4.95;;
72785;SDS011;60902;53.876;10.674;2023-04-05T00:08:50;9.82;;;5.43;;
72785;SDS011;60902;53.876;10.674;2023-04-05T00:09:04;10.23;;;6.00;;
72785;SDS011;60902;53.876;10.674;2023-04-05T00:09:16;10.38;;;5.95;;
72785;SDS011;60902;53.876;10.674;2023-04-05T00:09:28;9.95;;;5.85;;
72785;SDS011;60902;53.876;10.674;2023-04-05T00:09:39;9.50;;;5.50;;
72785;SDS011;60902;53.876;10.674;2023-04-05T00:09:50;9.93;;;5.72;;
72785;SDS011;60902;53.876;10.674;2023-04-05T00:10:02;10.73;;;5.88;;
72785;SDS011;60902;53.876;10.674;2023-04-05T00:10:14;10.93;;;5.70;;
72785;SDS011;60902;53.876;10.674;2023-04-05T00:10:25;9.50;;;5.50;;
72785;SDS011;60902;53.876;10.674;2023-04-05T00:10:36;9.50;;;5.60;;
72785;SDS011;60902;53.876;10.674;2023-04-05T00:10:47;10.02;;;5.63;;
72785;SDS011;60902;53.876;10.674;2023-04-05T00:10:58;9.88;;;5.53;;
72785;SDS011;60902;53.876;10.674;2023-04-05T00:11:09;9.55;;;5.40;;
72785;SDS011;60902;53.876;10.674;2023-04-05T00:11:21;9.63;;;5.43;;
72785;SDS011;60902;53.876;10.674;2023-04-05T00:11:32;10.50;;;5.50;;
72785;SDS011;60902;53.876;10.674;2023-04-05T00:11:45;10.35;;;5.68;;
72785;SDS011;60902;53.876;10.674;2023-04-05T00:11:56;10.85;;;5.72;;
72785;SDS011;60902;53.876;10.674;2023-04-05T00:12:07;10.70;;;5.47;;
72785;SDS011;60902;53.876;10.674;2023-04-05T00:12:18;10.05;;;5.38;;
72785;SDS011;60902;53.876;10.674;2023-04-05T00:12:29;9.32;;;5.15;;
72785;SDS011;60902;53.876;10.674;2023-04-05T00:12:40;9.63;;;4.95;;
72785;SDS011;60902;53.876;10.674;2023-04-05T00:12:51;10.32;;;5.28;;
72785;SDS011;60902;53.876;10.674;2023-04-05T00:13:03;10.02;;;5.70;;
72785;SDS011;60902;53.876;10.674;2023-04-05T00:13:14;9.65;;;5.60;;
72785;SDS011;60902;53.876;10.674;2023-04-05T00:13:25;9.77;;;5.50;;
72785;SDS011;60902;53.876;10.674;2023-04-05T00:13:36;9.60;;;5.25;;
72785;SDS011;60902;53.876;10.674;2023-04-05T00:13:47;9.75;;;5.60;;
72785;SDS011;60902;53.876;10.674;2023-04-05T00:13:58;9.38;;;5.82;;
72785;SDS011;60902;53.876;10.674;2023-04-05T00:14:10;9.18;;;5.60;;
72785;SDS011;60902;53.876;10.674;2023-04-05T00:14:23;9.95;;;5.47;;
72785;SDS011;60902;53.876;10.674;2023-04-05T00:14:34;9.55;;;5.13;;
72785;SDS011;60902;53.876;10.674;2023-04-05T00:14:47;9.57;;;5.10;;
72785;SDS011;60902;53.876;10.674;2023-04-05T00:14:58;10.02;;;5.22;;
72785;SDS011;60902;53.876;10.674;2023-04-05T00:15:09;9.93;;;5.70;;
72785;SDS011;60902;53.876;10.674;2023-04-05T00:15:20;10.05;;;5.82;;
72785;SDS011;60902;53.876;10.674;2023-04-05T00:15:31;9.38;;;5.60;;
72785;SDS011;60902;53.876;10.674;2023-04-05T00:15:42;9.35;;;5.22;;
72785;SDS011;60902;53.876;10.674;2023-04-05T00:15:53;8.57;;;5.03;;
72785;SDS011;60902;53.876;10.674;2023-04-05T00:16:07;8.85;;;5.03;;
72785;SDS011;60902;53.876;10.674;2023-04-05T00:16:18;8.52;;;5.03;;
72785;SDS011;60902;53.876;10.674;2023-04-05T00:16:31;8.65;;;5.00;;
72785;SDS011;60902;53.876;10.674;2023-04-05T00:16:42;9.73;;;5.20;;
72785;SDS011;60902;53.876;10.674;2023-04-05T00:16:54;9.85;;;5.30;;
72785;SDS011;60902;53.876;10.674;2023-04-05T00:17:05;9.38;;;5.13;;
72785;SDS011;60902;53.876;10.674;2023-04-05T00:17:16;8.85;;;5.07;;
72785;SDS011;60902;53.876;10.674;2023-04-05T00:17:27;8.85;;;5.05;;
72785;SDS011;60902;53.876;10.674;2023-04-05T00:17:40;9.20;;;5.38;;
72785;SDS011;60902;53.876;10.674;2023-04-05T00:17:56;9.25;;;5.60;;
72785;SDS011;60902;53.876;10.674;2023-04-05T00:18:09;8.70;;;5.40;;
72785;SDS011;60902;53.876;10.674;2023-04-05T00:18:30;8.55;;;5.25;;
72785;SDS011;60902;53.876;10.674;2023-04-05T00:18:43;9.35;;;5.57;;
72785;SDS011;60902;53.876;10.674;2023-04-05T00:18:58;9.80;;;5.65;;
72785;SDS011;60902;53.876;10.674;2023-04-05T00:19:11;9.45;;;5.13;;
72785;SDS011;60902;53.876;10.674;2023-04-05T00:19:22;9.15;;;5.13;;
72785;SDS011;60902;53.876;10.674;2023-04-05T00:19:33;9.15;;;5.20;;
72785;SDS011;60902;53.876;10.674;2023-04-05T00:19:47;9.13;;;5.43;;
72785;SDS011;60902;53.876;10.674;2023-04-05T00:20:00;9.40;;;5.45;;
72785;SDS011;60902;53.876;10.674;2023-04-05T00:20:16;9.43;;;5.07;;
72785;SDS011;60902;53.876;10.674;2023-04-05T00:20:27;9.10;;;4.93;;
72785;SDS011;60902;53.876;10.674;2023-04-05T00:20:38;9.68;;;5.38;;
72785;SDS011;60902;53.876;10.674;2023-04-05T00:20:50;9.35;;;5.53;;
72785;SDS011;60902;53.876;10.674;2023-04-05T00:21:01;9.07;;;5.30;;
72785;SDS011;60902;53.876;10.674;2023-04-05T00:21:12;9.32;;;5.35;;
72785;SDS011;60902;53.876;10.674;2023-04-05T00:21:24;9.80;;;5.63;;
72785;SDS011;60902;53.876;10.674;2023-04-05T00:21:35;9.50;;;5.70;;
72785;SDS011;60902;53.876;10.674;2023-04-05T00:21:48;9.73;;;5.63;;
72785;SDS011;60902;53.876;10.674;2023-04-05T00:21:59;9.23;;;5.53;;
72785;SDS011;60902;53.876;10.674;2023-04-05T00:22:10;9.55;;;5.40;;
72785;SDS011;60902;53.876;10.674;2023-04-05T00:22:21;8.93;;;5.13;;
72785;SDS011;60902;53.876;10.674;2023-04-05T00:22:41;9.50;;;5.38;;
72785;SDS011;60902;53.876;10.674;2023-04-05T00:22:55;10.05;;;5.60;;
72785;SDS011;60902;53.876;10.674;2023-04-05T00:23:06;10.25;;;5.65;;
72785;SDS011;60902;53.876;10.674;2023-04-05T00:23:19;9.43;;;5.37;;
72785;SDS011;60902;53.876;10.674;2023-04-05T00:23:31;9.57;;;5.35;;
72785;SDS011;60902;53.876;10.674;2023-04-05T00:23:47;9.25;;;5.18;;
72785;SDS011;60902;53.876;10.674;2023-04-05T00:24:00;8.98;;;4.93;;
72785;SDS011;60902;53.876;10.674;2023-04-05T00:24:11;9.23;;;5.22;;
72785;SDS011;60902;53.876;10.674;2023-04-05T00:24:24;9.25;;;5.13;;
72785;SDS011;60902;53.876;10.674;2023-04-05T00:24:35;8.57;;;5.15;;
72785;SDS011;60902;53.876;10.674;2023-04-05T00:24:51;8.77;;;4.97;;
72785;SDS011;60902;53.876;10.674;2023-04-05T00:25:02;8.82;;;4.88;;
72785;SDS011;60902;53.876;10.674;2023-04-05T00:25:13;8.60;;;4.88;;
72785;SDS011;60902;53.876;10.674;2023-04-05T00:25:24;8.60;;;5.13;;
72785;SDS011;60902;53.876;10.674;2023-04-05T00:25:35;8.65;;;5.28;;
72785;SDS011;60902;53.876;10.674;2023-04-05T00:25:46;8.75;;;5.22;;
72785;SDS011;60902;53.876;10.674;2023-04-05T00:25:57;8.73;;;5.28;;
72785;SDS011;60902;53.876;10.674;2023-04-05T00:26:09;9.00;;;5.32;;
72785;SDS011;60902;53.876;10.674;2023-04-05T00:26:21;8.77;;;5.40;;
72785;SDS011;60902;53.876;10.674;2023-04-05T00:26:31;8.80;;;5.30;;
72785;SDS011;60902;53.876;10.674;2023-04-05T00:26:43;8.48;;;5.13;;
72785;SDS011;60902;53.876;10.674;2023-04-05T00:26:54;8.60;;;4.88;;
72785;SDS011;60902;53.876;10.674;2023-04-05T00:27:05;8.77;;;4.80;;
72785;SDS011;60902;53.876;10.674;2023-04-05T00:27:17;9.30;;;5.10;;
72785;SDS011;60902;53.876;10.674;2023-04-05T00:27:29;9.38;;;5.35;;
72785;SDS011;60902;53.876;10.674;2023-04-05T00:27:41;9.80;;;5.63;;
72785;SDS011;60902;53.876;10.674;2023-04-05T00:27:53;9.45;;;5.72;;
72785;SDS011;60902;53.876;10.674;2023-04-05T00:28:03;9.27;;;5.55;;
72785;SDS011;60902;53.876;10.674;2023-04-05T00:28:15;8.63;;;5.50;;
72785;SDS011;60902;53.876;10.674;2023-04-05T00:28:26;8.88;;;5.43;;
72785;SDS011;60902;53.876;10.674;2023-04-05T00:28:36;9.10;;;5.32;;
72785;SDS011;60902;53.876;10.674;2023-04-05T00:28:49;9.10;;;5.00;;
72785;SDS011;60902;53.876;10.674;2023-04-05T00:29:00;8.52;;;4.70;;
72785;SDS011;60902;53.876;10.674;2023-04-05T00:29:11;8.63;;;4.78;;
72785;SDS011;60902;53.876;10.674;2023-04-05T00:29:22;8.80;;;4.93;;
72785;SDS011;60902;53.876;10.674;2023-04-05T00:29:33;8.82;;;5.03;;
72785;SDS011;60902;53.876;10.674;2023-04-05T00:29:44;9.27;;;5.25;;
72785;SDS011;60902;53.876;10.674;2023-04-05T00:29:55;9.00;;;5.03;;
72785;SDS011;60902;53.876;10.674;2023-04-05T00:30:08;9.00;;;4.80;;
72785;SDS011;60902;53.876;10.674;2023-04-05T00:30:19;8.52;;;4.50;;
72785;SDS011;60902;53.876;10.674;2023-04-05T00:30:31;8.77;;;4.70;;
72785;SDS011;60902;53.876;10.674;2023-04-05T00:30:42;9.13;;;4.90;;
72785;SDS011;60902;53.876;10.674;2023-04-05T00:30:53;8.93;;;4.82;;
72785;SDS011;60902;53.876;10.674;2023-04-05T00:31:06;9.00;;;4.82;;
72785;SDS011;60902;53.876;10.674;2023-04-05T00:31:17;8.80;;;4.78;;
72785;SDS011;60902;53.876;10.674;2023-04-05T00:31:30;8.77;;;4.82;;
72785;SDS011;60902;53.876;10.674;2023-04-05T00:31:41;8.95;;;5.00;;
72785;SDS011;60902;53.876;10.674;2023-04-05T00:31:52;9.07;;;5.28;;
72785;SDS011;60902;53.876;10.674;2023-04-05T00:32:03;9.63;;;5.40;;
72785;SDS011;60902;53.876;10.674;2023-04-05T00:32:14;9.30;;;5.53;;
72785;SDS011;60902;53.876;10.674;2023-04-05T00:32:26;9.20;;;5.40;;
72785;SDS011;60902;53.876;10.674;2023-04-05T00:32:37;9.00;;;5.25;;
72785;SDS011;60902;53.876;10.674;2023-04-05T00:32:48;8.77;;;5.10;;
72785;SDS011;60902;53.876;10.674;2023-04-05T00:33:01;8.85;;;5.18;;
72785;SDS011;60902;53.876;10.674;2023-04-05T00:33:12;9.60;;;5.20;;
72785;SDS011;60902;53.876;10.674;2023-04-05T00:33:22;9.63;;;5.07;;
72785;SDS011;60902;53.876;10.674;2023-04-05T00:33:33;9.27;;;4.78;;
72785;SDS011;60902;53.876;10.674;2023-04-05T00:33:44;9.00;;;4.60;;
72785;SDS011;60902;53.876;10.674;2023-04-05T00:33:57;9.20;;;4.65;;
72785;SDS011;60902;53.876;10.674;2023-04-05T00:34:08;8.93;;;5.00;;
72785;SDS011;60902;53.876;10.674;2023-04-05T00:34:19;9.57;;;5.38;;
72785;SDS011;60902;53.876;10.674;2023-04-05T00:34:31;9.20;;;5.13;;
72785;SDS011;60902;53.876;10.674;2023-04-05T00:34:42;8.98;;;4.72;;
72785;SDS011;60902;53.876;10.674;2023-04-05T00:34:53;9.18;;;4.90;;
72785;SDS011;60902;53.876;10.674;2023-04-05T00:35:05;8.57;;;4.85;;
72785;SDS011;60902;53.876;10.674;2023-04-05T00:35:16;8.40;;;4.97;;
72785;SDS011;60902;53.876;10.674;2023-04-05T00:35:27;8.30;;;4.90;;
72785;SDS011;60902;53.876;10.674;2023-04-05T00:35:38;8.45;;;5.00;;
72785;SDS011;60902;53.876;10.674;2023-04-05T00:35:50;8.55;;;4.88;;
72785;SDS011;60902;53.876;10.674;2023-04-05T00:36:08;8.85;;;4.78;;
72785;SDS011;60902;53.876;10.674;2023-04-05T00:36:21;7.82;;;4.70;;
72785;SDS011;60902;53.876;10.674;2023-04-05T00:36:32;7.82;;;4.88;;
72785;SDS011;60902;53.876;10.674;2023-04-05T00:36:45;8.75;;;5.00;;
72785;SDS011;60902;53.876;10.674;2023-04-05T00:36:56;8.90;;;4.78;;
72785;SDS011;60902;53.876;10.674;2023-04-05T00:37:07;9.23;;;5.18;;
72785;SDS011;60902;53.876;10.674;2023-04-05T00:37:20;9.15;;;5.20;;
72785;SDS011;60902;53.876;10.674;2023-04-05T00:37:31;9.02;;;4.65;;
72785;SDS011;60902;53.876;10.674;2023-04-05T00:37:43;9.20;;;4.95;;
72785;SDS011;60902;53.876;10.674;2023-04-05T00:37:56;8.93;;;5.03;;
72785;SDS011;60902;53.876;10.674;2023-04-05T00:38:07;8.45;;;5.03;;
72785;SDS011;60902;53.876;10.674;2023-04-05T00:38:18;8.57;;;5.38;;
72785;SDS011;60902;53.876;10.674;2023-04-05T00:38:28;8.63;;;5.33;;
72785;SDS011;60902;53.876;10.674;2023-04-05T00:38:40;8.88;;;5.25;;
72785;SDS011;60902;53.876;10.674;2023-04-05T00:38:52;8.85;;;5.05;;
72785;SDS011;60902;53.876;10.674;2023-04-05T00:39:05;8.88;;;5.00;;
72785;SDS011;60902;53.876;10.674;2023-04-05T00:39:16;9.27;;;4.70;;
72785;SDS011;60902;53.876;10.674;2023-04-05T00:39:27;9.77;;;4.95;;
72785;SDS011;60902;53.876;10.674;2023-04-05T00:39:38;9.43;;;4.73;;
72785;SDS011;60902;53.876;10.674;2023-04-05T00:39:49;9.20;;;4.80;;
72785;SDS011;60902;53.876;10.674;2023-04-05T00:40:02;8.95;;;4.80;;
72785;SDS011;60902;53.876;10.674;2023-04-05T00:40:14;8.88;;;4.95;;
72785;SDS011;60902;53.876;10.674;2023-04-05T00:40:26;8.57;;;5.00;;
72785;SDS011;60902;53.876;10.674;2023-04-05T00:40:39;8.43;;;4.85;;
72785;SDS011;60902;53.876;10.674;2023-04-05T00:40:50;8.45;;;4.80;;
72785;SDS011;60902;53.876;10.674;2023-04-05T00:41:01;8.48;;;4.60;;
72785;SDS011;60902;53.876;10.674;2023-04-05T00:41:12;9.55;;;5.05;;
72785;SDS011;60902;53.876;10.674;2023-04-05T00:41:23;9.70;;;4.95;;
72785;SDS011;60902;53.876;10.674;2023-04-05T00:41:35;9.75;;;5.10;;
72785;SDS011;60902;53.876;10.674;2023-04-05T00:41:46;8.80;;;4.80;;
72785;SDS011;60902;53.876;10.674;2023-04-05T00:41:57;8.55;;;5.05;;
72785;SDS011;60902;53.876;10.674;2023-04-05T00:42:11;8.75;;;5.07;;
72785;SDS011;60902;53.876;10.674;2023-04-05T00:42:22;8.95;;;4.93;;
72785;SDS011;60902;53.876;10.674;2023-04-05T00:42:33;8.75;;;5.00;;
72785;SDS011;60902;53.876;10.674;2023-04-05T00:42:44;8.55;;;4.93;;
72785;SDS011;60902;53.876;10.674;2023-04-05T00:42:55;8.90;;;4.88;;
72785;SDS011;60902;53.876;10.674;2023-04-05T00:43:06;9.38;;;4.85;;
72785;SDS011;60902;53.876;10.674;2023-04-05T00:43:17;9.70;;;5.13;;
72785;SDS011;60902;53.876;10.674;2023-04-05T00:43:27;9.25;;;5.00;;
72785;SDS011;60902;53.876;10.674;2023-04-05T00:43:38;9.73;;;4.87;;
72785;SDS011;60902;53.876;10.674;2023-04-05T00:43:52;8.98;;;4.70;;
72785;SDS011;60902;53.876;10.674;2023-04-05T00:44:03;8.80;;;4.70;;
72785;SDS011;60902;53.876;10.674;2023-04-05T00:44:14;9.02;;;4.80;;
72785;SDS011;60902;53.876;10.674;2023-04-05T00:44:25;9.02;;;4.72;;
72785;SDS011;60902;53.876;10.674;2023-04-05T00:44:37;8.98;;;4.90;;
72785;SDS011;60902;53.876;10.674;2023-04-05T00:44:50;9.00;;;4.97;;
72785;SDS011;60902;53.876;10.674;2023-04-05T00:45:01;8.38;;;4.80;;
72785;SDS011;60902;53.876;10.674;2023-04-05T00:45:12;8.43;;;4.80;;
72785;SDS011;60902;53.876;10.674;2023-04-05T00:45:24;8.63;;;4.72;;
72785;SDS011;60902;53.876;10.674;2023-04-05T00:45:35;8.98;;;4.80;;
72785;SDS011;60902;53.876;10.674;2023-04-05T00:45:46;9.45;;;4.88;;
72785;SDS011;60902;53.876;10.674;2023-04-05T00:45:57;8.82;;;4.90;;
72785;SDS011;60902;53.876;10.674;2023-04-05T00:46:08;8.90;;;4.63;;
72785;SDS011;60902;53.876;10.674;2023-04-05T00:46:19;8.43;;;4.60;;
72785;SDS011;60902;53.876;10.674;2023-04-05T00:46:32;8.88;;;4.82;;
72785;SDS011;60902;53.876;10.674;2023-04-05T00:46:45;9.50;;;5.10;;
72785;SDS011;60902;53.876;10.674;2023-04-05T00:46:56;9.73;;;5.10;;
72785;SDS011;60902;53.876;10.674;2023-04-05T00:47:07;9.77;;;4.88;;
72785;SDS011;60902;53.876;10.674;2023-04-05T00:47:18;9.60;;;5.13;;
72785;SDS011;60902;53.876;10.674;2023-04-05T00:47:29;9.35;;;5.18;;
72785;SDS011;60902;53.876;10.674;2023-04-05T00:47:40;8.77;;;5.15;;
72785;SDS011;60902;53.876;10.674;2023-04-05T00:47:52;8.63;;;4.90;;
72785;SDS011;60902;53.876;10.674;2023-04-05T00:48:03;8.50;;;4.75;;
72785;SDS011;60902;53.876;10.674;2023-04-05T00:48:16;9.18;;;4.93;;
72785;SDS011;60902;53.876;10.674;2023-04-05T00:48:27;9.15;;;4.90;;
72785;SDS011;60902;53.876;10.674;2023-04-05T00:48:38;9.35;;;4.72;;
72785;SDS011;60902;53.876;10.674;2023-04-05T00:48:49;8.57;;;4.45;;
72785;SDS011;60902;53.876;10.674;2023-04-05T00:49:00;8.90;;;4.65;;
72785;SDS011;60902;53.876;10.674;2023-04-05T00:49:11;8.27;;;4.75;;
72785;SDS011;60902;53.876;10.674;2023-04-05T00:49:22;8.82;;;4.65;;
72785;SDS011;60902;53.876;10.674;2023-04-05T00:49:34;8.27;;;4.32;;
72785;SDS011;60902;53.876;10.674;2023-04-05T00:49:46;8.63;;;4.57;;
72785;SDS011;60902;53.876;10.674;2023-04-05T00:49:58;9.63;;;4.97;;
72785;SDS011;60902;53.876;10.674;2023-04-05T00:50:09;9.18;;;4.93;;
72785;SDS011;60902;53.876;10.674;2023-04-05T00:50:22;8.88;;;4.80;;
72785;SDS011;60902;53.876;10.674;2023-04-05T00:50:33;8.18;;;4.88;;
72785;SDS011;60902;53.876;10.674;2023-04-05T00:50:44;8.05;;;4.57;;
72785;SDS011;60902;53.876;10.674;2023-04-05T00:50:58;8.73;;;4.73;;
72785;SDS011;60902;53.876;10.674;2023-04-05T00:51:09;8.40;;;4.78;;
72785;SDS011;60902;53.876;10.674;2023-04-05T00:51:21;8.07;;;4.78;;
72785;SDS011;60902;53.876;10.674;2023-04-05T00:51:33;8.25;;;4.40;;
72785;SDS011;60902;53.876;10.674;2023-04-05T00:51:44;8.88;;;4.78;;
72785;SDS011;60902;53.876;10.674;2023-04-05T00:51:56;9.38;;;5.10;;
72785;SDS011;60902;53.876;10.674;2023-04-05T00:52:07;9.20;;;4.80;;
72785;SDS011;60902;53.876;10.674;2023-04-05T00:52:18;9.10;;;4.50;;
72785;SDS011;60902;53.876;10.674;2023-04-05T00:52:32;8.88;;;4.30;;
72785;SDS011;60902;53.876;10.674;2023-04-05T00:52:46;8.18;;;4.43;;
72785;SDS011;60902;53.876;10.674;2023-04-05T00:53:00;7.72;;;4.45;;
72785;SDS011;60902;53.876;10.674;2023-04-05T00:53:12;8.18;;;4.85;;
72785;SDS011;60902;53.876;10.674;2023-04-05T00:53:24;8.70;;;5.03;;
72785;SDS011;60902;53.876;10.674;2023-04-05T00:53:36;8.30;;;4.72;;
72785;SDS011;60902;53.876;10.674;2023-04-05T00:53:47;8.13;;;4.55;;
72785;SDS011;60902;53.876;10.674;2023-04-05T00:54:01;8.20;;;4.50;;
72785;SDS011;60902;53.876;10.674;2023-04-05T00:54:14;8.10;;;4.50;;
72785;SDS011;60902;53.876;10.674;2023-04-05T00:54:25;7.43;;;4.43;;
72785;SDS011;60902;53.876;10.674;2023-04-05T00:54:38;7.75;;;4.55;;
72785;SDS011;60902;53.876;10.674;2023-04-05T00:54:50;8.05;;;4.55;;
72785;SDS011;60902;53.876;10.674;2023-04-05T00:55:02;9.15;;;4.72;;
72785;SDS011;60902;53.876;10.674;2023-04-05T00:55:15;9.40;;;4.80;;
72785;SDS011;60902;53.876;10.674;2023-04-05T00:55:26;8.77;;;4.70;;
72785;SDS011;60902;53.876;10.674;2023-04-05T00:55:39;7.70;;;4.60;;
72785;SDS011;60902;53.876;10.674;2023-04-05T00:55:51;8.10;;;4.78;;
72785;SDS011;60902;53.876;10.674;2023-04-05T00:56:03;8.70;;;4.88;;
72785;SDS011;60902;53.876;10.674;2023-04-05T00:56:15;8.50;;;4.65;;
72785;SDS011;60902;53.876;10.674;2023-04-05T00:56:25;8.07;;;4.47;;
72785;SDS011;60902;53.876;10.674;2023-04-05T00:56:37;8.90;;;4.47;;
72785;SDS011;60902;53.876;10.674;2023-04-05T00:56:49;9.55;;;4.65;;
72785;SDS011;60902;53.876;10.674;2023-04-05T00:57:02;9.30;;;4.45;;
72785;SDS011;60902;53.876;10.674;2023-04-05T00:57:15;8.85;;;4.32;;
72785;SDS011;60902;53.876;10.674;2023-04-05T00:57:26;8.88;;;4.32;;
72785;SDS011;60902;53.876;10.674;2023-04-05T00:57:39;9.35;;;4.60;;
72785;SDS011;60902;53.876;10.674;2023-04-05T00:57:51;9.70;;;4.70;;
72785;SDS011;60902;53.876;10.674;2023-04-05T00:58:04;9.43;;;4.60;;
72785;SDS011;60902;53.876;10.674;2023-04-05T00:58:18;8.75;;;4.90;;
72785;SDS011;60902;53.876;10.674;2023-04-05T00:58:31;8.90;;;4.80;;
72785;SDS011;60902;53.876;10.674;2023-04-05T00:58:43;8.63;;;4.65;;
72785;SDS011;60902;53.876;10.674;2023-04-05T00:58:55;8.88;;;4.75;;
72785;SDS011;60902;53.876;10.674;2023-04-05T00:59:05;8.32;;;4.72;;
72785;SDS011;60902;53.876;10.674;2023-04-05T00:59:17;8.18;;;4.60;;
72785;SDS011;60902;53.876;10.674;2023-04-05T00:59:27;8.45;;;4.38;;
72785;SDS011;60902;53.876;10.674;2023-04-05T00:59:38;8.52;;;4.38;;
72785;SDS011;60902;53.876;10.674;2023-04-05T00:59:50;9.02;;;4.70;;
72785;SDS011;60902;53.876;10.674;2023-04-05T01:00:00;8.95;;;4.70;;
72785;SDS011;60902;53.876;10.674;2023-04-05T01:00:15;9.05;;;4.65;;
72785;SDS011;60902;53.876;10.674;2023-04-05T01:00:28;8.15;;;4.47;;
72785;SDS011;60902;53.876;10.674;2023-04-05T01:00:39;8.00;;;4.53;;
72785;SDS011;60902;53.876;10.674;2023-04-05T01:00:53;8.45;;;4.53;;
72785;SDS011;60902;53.876;10.674;2023-04-05T01:01:12;8.25;;;4.63;;
72785;SDS011;60902;53.876;10.674;2023-04-05T01:01:27;8.20;;;4.57;;
72785;SDS011;60902;53.876;10.674;2023-04-05T01:01:38;8.52;;;4.47;;
72785;SDS011;60902;53.876;10.674;2023-04-05T01:01:53;8.25;;;4.85;;
72785;SDS011;60902;53.876;10.674;2023-04-05T01:02:10;8.05;;;4.57;;
72785;SDS011;60902;53.876;10.674;2023-04-05T01:02:27;8.07;;;4.40;;
72785;SDS011;60902;53.876;10.674;2023-04-05T01:02:43;7.65;;;4.15;;
72785;SDS011;60902;53.876;10.674;2023-04-05T01:02:57;7.55;;;4.00;;
72785;SDS011;60902;53.876;10.674;2023-04-05T01:03:10;7.93;;;4.28;;
72785;SDS011;60902;53.876;10.674;2023-04-05T01:03:22;8.63;;;4.65;;
72785;SDS011;60902;53.876;10.674;2023-04-05T01:03:36;8.55;;;4.60;;
72785;SDS011;60902;53.876;10.674;2023-04-05T01:03:50;8.23;;;4.78;;
72785;SDS011;60902;53.876;10.674;2023-04-05T01:04:08;8.73;;;4.75;;
72785;SDS011;60902;53.876;10.674;2023-04-05T01:04:21;8.48;;;4.43;;
72785;SDS011;60902;53.876;10.674;2023-04-05T01:04:34;8.85;;;4.72;;
72785;SDS011;60902;53.876;10.674;2023-04-05T01:04:48;8.07;;;4.50;;
72785;SDS011;60902;53.876;10.674;2023-04-05T01:05:07;7.75;;;4.15;;
72785;SDS011;60902;53.876;10.674;2023-04-05T01:05:32;8.15;;;4.32;;
72785;SDS011;60902;53.876;10.674;2023-04-05T01:05:46;8.45;;;4.70;;
72785;SDS011;60902;53.876;10.674;2023-04-05T01:06:05;8.70;;;4.82;;
72785;SDS011;60902;53.876;10.674;2023-04-05T01:06:32;8.80;;;4.68;;
72785;SDS011;60902;53.876;10.674;2023-04-05T01:07:02;7.55;;;4.20;;
72785;SDS011;60902;53.876;10.674;2023-04-05T01:07:19;8.25;;;4.88;;
72785;SDS011;60902;53.876;10.674;2023-04-05T01:07:39;8.70;;;4.60;;
72785;SDS011;60902;53.876;10.674;2023-04-05T01:07:57;7.88;;;4.13;;
72785;SDS011;60902;53.876;10.674;2023-04-05T01:08:15;7.90;;;4.40;;
72785;SDS011;60902;53.876;10.674;2023-04-05T01:08:33;8.15;;;4.43;;
72785;SDS011;60902;53.876;10.674;2023-04-05T01:08:51;7.75;;;4.55;;
72785;SDS011;60902;53.876;10.674;2023-04-05T01:09:12;8.35;;;4.43;;
72785;SDS011;60902;53.876;10.674;2023-04-05T01:09:39;8.70;;;4.55;;
72785;SDS011;60902;53.876;10.674;2023-04-05T01:09:58;7.57;;;4.30;;
72785;SDS011;60902;53.876;10.674;2023-04-05T01:10:10;8.38;;;4.40;;
72785;SDS011;60902;53.876;10.674;2023-04-05T01:10:24;8.63;;;4.38;;
72785;SDS011;60902;53.876;10.674;2023-04-05T01:10:43;8.32;;;4.55;;
72785;SDS011;60902;53.876;10.674;2023-04-05T01:11:04;9.00;;;4.53;;
72785;SDS011;60902;53.876;10.674;2023-04-05T01:11:16;8.73;;;4.47;;
72785;SDS011;60902;53.876;10.674;2023-04-05T01:11:27;8.75;;;4.45;;
72785;SDS011;60902;53.876;10.674;2023-04-05T01:11:41;8.98;;;4.55;;
72785;SDS011;60902;53.876;10.674;2023-04-05T01:11:55;9.55;;;4.35;;
72785;SDS011;60902;53.876;10.674;2023-04-05T01:12:11;8.82;;;4.20;;
72785;SDS011;60902;53.876;10.674;2023-04-05T01:12:26;7.88;;;4.20;;
72785;SDS011;60902;53.876;10.674;2023-04-05T01:12:41;7.93;;;4.22;;
72785;SDS011;60902;53.876;10.674;2023-04-05T01:12:53;8.15;;;4.20;;
72785;SDS011;60902;53.876;10.674;2023-04-05T01:13:04;8.25;;;4.20;;
72785;SDS011;60902;53.876;10.674;2023-04-05T01:13:15;8.23;;;4.30;;
72785;SDS011;60902;53.876;10.674;2023-04-05T01:13:28;8.20;;;4.20;;
72785;SDS011;60902;53.876;10.674;2023-04-05T01:13:39;7.88;;;4.10;;
72785;SDS011;60902;53.876;10.674;2023-04-05T01:13:56;8.10;;;4.15;;
72785;SDS011;60902;53.876;10.674;2023-04-05T01:14:07;8.93;;;4.27;;
72785;SDS011;60902;53.876;10.674;2023-04-05T01:14:18;9.20;;;4.50;;